METAR AND TAF INFORMATION
METAR FOR SBUL
ADDS - METARS form results

(1925 UTC 19 September 2021)
Data provider http://aviationweather.gov/metar/data/
 
METAR text: SBUL 191900Z 07004KT 010V120 7000 FEW049 34/03 Q1015
Conditions at: SBUL (UBERLANDIA , BR) observed 1900 UTC 19 September 2021
Temperature: 34.0°C (93°F)
Dewpoint: 3.0°C (37°F) [RH = 14%]
Pressure (altimeter): 29.97 inches Hg (1015.0 mb)
Winds: from the ENE (70 degrees) at 5 MPH (4 knots; 2.1 m/s)
Visibility: 4 miles ( 7 km)
Ceiling: at least 12,000 feet AGL
Clouds: few clouds at 4900 feet AGL
Weather: no significant weather observed at this time

 AIRPORT MAP

 RUNWAY INFORMATION
Runway 4 Runway length 6398 ft Runway width 148 ft
Runway elevation 0 ft Runway displaced threshold 0 ft Runway heading 0
Runway 22 Runway length 6398 ft Runway width 148 ft
Runway elevation 0 ft Runway displaced threshold 0 ft Runway heading 0

 AIRPORT FREQUENCIES
Type APP Name APP Frequency 120.8 MHZ
Type RDO Name RDO Frequency 118.8 MHZ
Type TWR Name TWR Frequency 118.8 MHZ

 AIRPORT NEAR NAVIGATION AIDS
Type VOR-DME Name Uberlandia Frequency 116100 KHZ
Type NDB Name Uberlandia Frequency 350 KHZ



Powered by Virtual Airlines Manager [v2.6.2]